Time;durP1;ratioP1;P1;durP2;ratioP2;P2;SDS_P1;SDS_P2;PMS_P1;PMS_P2;Temp;Humidity;BMP_temperature;BMP_pressure;BME280_temperature;BME280_humidity;BME280_pressure;Samples;Min_cycle;Max_cycle;Signal;HPM_P1;HPM_P2
2021/11/19 00:02:25;;;;;;;25.10;13.43;;;11.80;78.10;;;;;;5017810;28;20543;-86
2021/11/19 00:04:51;;;;;;;25.48;12.55;;;11.80;78.20;;;;;;4998286;28;20026;-86
2021/11/19 00:07:17;;;;;;;20.00;12.30;;;11.80;78.10;;;;;;5030780;28;20056;-86
2021/11/19 00:09:43;;;;;;;25.33;13.20;;;11.80;78.00;;;;;;5030479;28;20033;-87
2021/11/19 00:12:09;;;;;;;31.90;13.77;;;11.80;78.20;;;;;;4997123;28;20054;-86
2021/11/19 00:14:35;;;;;;;22.70;12.75;;;11.80;78.20;;;;;;5000260;28;20014;-86
2021/11/19 00:17:08;;;;;;;25.73;12.38;;;11.80;78.20;;;;;;4997205;28;20125;-86
2021/11/19 00:19:36;;;;;;;22.05;13.43;;;11.80;78.20;;;;;;4999599;28;20033;-87
2021/11/19 00:22:03;;;;;;;25.08;11.10;;;11.80;78.20;;;;;;4997155;28;20488;-86
2021/11/19 00:24:48;;;;;;;20.55;11.23;;;11.80;78.00;;;;;;4999391;28;20038;-86
2021/11/19 00:27:18;;;;;;;21.88;11.60;;;11.80;77.90;;;;;;4996671;28;20504;-86
2021/11/19 00:30:10;;;;;;;28.55;11.68;;;11.80;77.60;;;;;;4997814;28;20029;-86
2021/11/19 00:32:37;;;;;;;21.15;11.25;;;11.80;77.80;;;;;;5003249;28;20102;-87
2021/11/19 00:35:05;;;;;;;19.35;9.65;;;11.80;77.90;;;;;;5011657;28;20411;-86
2021/11/19 00:37:31;;;;;;;22.73;9.77;;;11.80;77.70;;;;;;5012068;28;20145;-86
2021/11/19 00:39:57;;;;;;;21.38;10.27;;;11.70;77.90;;;;;;4996992;28;20065;-86
2021/11/19 00:42:23;;;;;;;21.42;10.10;;;11.80;77.90;;;;;;4999779;28;20108;-86
2021/11/19 00:44:48;;;;;;;20.42;9.80;;;11.80;78.40;;;;;;5004130;28;20085;-86
2021/11/19 00:47:34;;;;;;;23.45;9.25;;;11.80;78.00;;;;;;4998680;28;20027;-86
2021/11/19 00:50:07;;;;;;;22.50;9.02;;;11.80;77.80;;;;;;5011747;28;20397;-86
2021/11/19 00:52:56;;;;;;;17.40;8.98;;;11.80;77.20;;;;;;4996675;28;20019;-86
2021/11/19 00:55:22;;;;;;;17.92;7.70;;;11.80;76.70;;;;;;4999400;28;20045;-86
2021/11/19 00:57:49;;;;;;;22.23;8.85;;;11.80;76.50;;;;;;4996698;28;20206;-86
2021/11/19 01:00:19;;;;;;;23.67;10.82;;;11.80;77.20;;;;;;5000129;28;20053;-85
2021/11/19 01:02:44;;;;;;;30.08;11.45;;;11.80;77.10;;;;;;5020047;28;20069;-86
2021/11/19 01:05:11;;;;;;;23.23;9.48;;;11.80;77.20;;;;;;4999786;28;20026;-86
2021/11/19 01:07:37;;;;;;;19.55;9.52;;;11.80;77.10;;;;;;4996395;28;20030;-86
2021/11/19 01:10:14;;;;;;;18.70;9.18;;;11.80;77.00;;;;;;4998707;28;20082;-86
2021/11/19 01:12:40;;;;;;;23.92;8.02;;;11.80;76.50;;;;;;4996235;28;20034;-86
2021/11/19 01:15:38;;;;;;;17.25;7.47;;;11.80;76.40;;;;;;4996173;28;20026;-85
2021/11/19 01:18:24;;;;;;;16.02;7.15;;;11.80;76.70;;;;;;5013099;28;20030;-87
2021/11/19 01:21:16;;;;;;;21.08;8.80;;;11.80;76.70;;;;;;4996202;28;20060;-86
2021/11/19 01:23:43;;;;;;;17.60;8.10;;;11.80;76.80;;;;;;4997724;28;20043;-86
2021/11/19 01:26:19;;;;;;;21.08;9.02;;;11.80;76.80;;;;;;5010156;28;20040;-86
2021/11/19 01:28:46;;;;;;;20.17;8.27;;;11.80;77.00;;;;;;4997486;28;20027;-85
2021/11/19 01:31:16;;;;;;;16.95;8.13;;;11.70;76.10;;;;;;5003382;28;20034;-86
2021/11/19 01:33:43;;;;;;;19.95;7.85;;;11.70;76.10;;;;;;5017188;28;20050;-86
2021/11/19 01:36:11;;;;;;;19.75;7.57;;;11.70;76.70;;;;;;5015887;28;20040;-86
2021/11/19 01:38:43;;;;;;;14.27;6.90;;;11.70;76.10;;;;;;5009387;28;20007;-86
2021/11/19 01:41:32;;;;;;;16.58;7.43;;;11.70;76.50;;;;;;4994707;28;20026;-86
2021/11/19 01:44:24;;;;;;;20.55;8.88;;;11.70;76.30;;;;;;5010349;28;20434;-86
2021/11/19 01:46:52;;;;;;;19.08;7.78;;;11.80;76.60;;;;;;4997842;28;20038;-86
2021/11/19 01:49:20;;;;;;;17.85;7.50;;;11.80;76.60;;;;;;4995562;28;20142;-87
2021/11/19 01:51:55;;;;;;;13.20;7.43;;;11.80;76.40;;;;;;4998900;28;20042;-86
2021/11/19 01:54:34;;;;;;;18.98;7.78;;;11.80;76.20;;;;;;4996210;28;20060;-86
2021/11/19 01:57:14;;;;;;;20.75;8.52;;;11.80;76.20;;;;;;4999450;28;20379;-86
2021/11/19 02:00:00;;;;;;;18.90;8.00;;;11.80;76.30;;;;;;5010818;28;20034;-85
2021/11/19 02:02:36;;;;;;;16.77;8.45;;;11.70;76.20;;;;;;4998598;28;20400;-86
2021/11/19 02:05:23;;;;;;;21.10;8.98;;;11.70;76.30;;;;;;4996244;28;20062;-86
2021/11/19 02:07:54;;;;;;;16.85;8.75;;;11.70;76.70;;;;;;4998187;28;20038;-86
2021/11/19 02:10:32;;;;;;;19.10;8.10;;;11.70;76.50;;;;;;4995645;28;20030;-85
2021/11/19 02:13:15;;;;;;;18.20;8.50;;;11.60;76.40;;;;;;5016388;28;20036;-85
2021/11/19 02:15:52;;;;;;;19.33;8.23;;;11.60;77.30;;;;;;4999824;28;20022;-86
2021/11/19 02:18:49;;;;;;;18.85;9.02;;;11.60;77.00;;;;;;5001176;28;20032;-86
2021/11/19 02:21:20;;;;;;;16.92;8.10;;;11.70;77.10;;;;;;4998537;28;20084;-86
2021/11/19 02:24:08;;;;;;;18.55;9.05;;;11.70;77.10;;;;;;4999178;28;20030;-86
2021/11/19 02:26:41;;;;;;;16.50;7.82;;;11.80;77.10;;;;;;4998608;28;20038;-86
2021/11/19 02:29:08;;;;;;;21.55;9.07;;;11.70;77.00;;;;;;4998389;28;20022;-86
2021/11/19 02:31:47;;;;;;;15.05;7.22;;;11.80;77.10;;;;;;5019922;28;20044;-86
2021/11/19 02:34:13;;;;;;;17.08;8.13;;;11.70;77.20;;;;;;5018827;28;20100;-86
2021/11/19 02:36:45;;;;;;;14.52;8.00;;;11.80;77.20;;;;;;5002412;28;20069;-86
2021/11/19 02:39:42;;;;;;;14.73;7.68;;;11.70;77.00;;;;;;4999393;28;20444;-86
2021/11/19 02:42:16;;;;;;;17.67;7.78;;;11.60;77.10;;;;;;5001246;28;20070;-85
2021/11/19 02:44:44;;;;;;;19.40;7.38;;;11.50;77.20;;;;;;5004719;28;20464;-86
2021/11/19 02:47:15;;;;;;;12.48;6.75;;;11.40;77.20;;;;;;5012669;28;20038;-86
2021/11/19 02:49:43;;;;;;;17.80;8.00;;;11.30;77.50;;;;;;4999022;28;20033;-87
2021/11/19 02:52:52;;;;;;;16.08;7.63;;;11.20;77.70;;;;;;4999502;28;20074;-87
2021/11/19 02:55:21;;;;;;;12.80;8.15;;;11.10;77.80;;;;;;4998824;28;20046;-86
2021/11/19 02:58:08;;;;;;;16.67;6.70;;;11.10;78.00;;;;;;4999192;28;20110;-85
2021/11/19 03:00:55;;;;;;;16.40;7.82;;;11.00;78.20;;;;;;4998716;28;20057;-86
2021/11/19 03:03:21;;;;;;;11.18;6.35;;;10.90;78.20;;;;;;4998851;28;20026;-86
2021/11/19 03:05:47;;;;;;;14.07;5.72;;;10.90;78.30;;;;;;5017290;28;20026;-86
2021/11/19 03:08:13;;;;;;;14.77;6.22;;;10.80;78.40;;;;;;4998784;28;20023;-86
2021/11/19 03:10:43;;;;;;;10.02;5.80;;;10.80;78.40;;;;;;5001352;28;20510;-85
2021/11/19 03:13:10;;;;;;;16.52;7.25;;;10.70;78.50;;;;;;4998820;28;20463;-85
2021/11/19 03:15:40;;;;;;;10.73;5.22;;;10.70;78.60;;;;;;5002906;28;20034;-86
2021/11/19 03:18:06;;;;;;;14.35;5.97;;;10.70;78.50;;;;;;5016347;28;20030;-86
2021/11/19 03:21:03;;;;;;;;;;;;;;;;;;;;;
2021/11/19 03:23:31;;;;;;;10.30;5.43;;;10.50;78.70;;;;;;5018018;28;20032;-86
2021/11/19 03:25:57;;;;;;;20.63;6.20;;;10.50;78.50;;;;;;5002086;28;20034;-86
2021/11/19 03:28:24;;;;;;;12.88;5.15;;;10.40;78.60;;;;;;5001509;28;20034;-86
2021/11/19 03:30:53;;;;;;;14.60;5.70;;;10.50;78.70;;;;;;4996973;28;20030;-87
2021/11/19 03:33:23;;;;;;;8.23;4.65;;;10.40;78.20;;;;;;5016673;28;20038;-86
2021/11/19 03:35:49;;;;;;;7.78;4.22;;;10.40;78.40;;;;;;4998195;28;20438;-86
2021/11/19 03:38:19;;;;;;;13.15;5.20;;;10.30;78.10;;;;;;5001112;28;20038;-86
2021/11/19 03:40:47;;;;;;;12.68;4.57;;;10.30;78.30;;;;;;4998541;28;20113;-85
2021/11/19 03:43:43;;;;;;;11.00;4.22;;;10.30;78.10;;;;;;4998135;28;20114;-86
2021/11/19 03:46:13;;;;;;;13.68;4.78;;;10.30;78.20;;;;;;4998849;28;20039;-86
2021/11/19 03:48:39;;;;;;;;;;;10.30;78.10;;;;;;4997318;28;20551;-86
2021/11/19 03:51:11;;;;;;;8.73;3.72;;;10.20;77.80;;;;;;5001113;28;19941;-86
2021/11/19 03:53:37;;;;;;;12.30;4.15;;;10.20;77.80;;;;;;4997976;28;20077;-87
2021/11/19 03:56:04;;;;;;;12.32;4.50;;;10.20;78.20;;;;;;5000913;28;20105;-85
2021/11/19 03:58:32;;;;;;;10.57;4.18;;;10.20;78.20;;;;;;4997867;28;20049;-86
2021/11/19 04:01:10;;;;;;;9.77;3.95;;;10.20;78.10;;;;;;5000155;28;20042;-86
2021/11/19 04:03:37;;;;;;;11.68;4.60;;;10.10;78.40;;;;;;5013001;28;20121;-85
2021/11/19 04:06:23;;;;;;;12.27;3.72;;;10.00;78.10;;;;;;5012709;28;20508;-86
2021/11/19 04:08:49;;;;;;;12.10;4.18;;;10.00;78.30;;;;;;4999418;28;20034;-86
2021/11/19 04:11:15;;;;;;;7.90;4.35;;;9.90;77.70;;;;;;4997604;28;20499;-85
2021/11/19 04:13:42;;;;;;;8.55;4.10;;;9.90;77.90;;;;;;5001029;28;20018;-86
2021/11/19 04:16:13;;;;;;;5.85;3.08;;;9.80;78.20;;;;;;4998133;28;20416;-85
2021/11/19 04:18:40;;;;;;;9.32;4.30;;;9.80;78.20;;;;;;5001399;28;20030;-86
2021/11/19 04:21:07;;;;;;;11.90;4.10;;;9.80;78.20;;;;;;5000979;28;20030;-85
2021/11/19 04:23:33;;;;;;;11.90;4.20;;;9.70;78.10;;;;;;5000514;28;20476;-85
2021/11/19 04:26:01;;;;;;;12.63;4.10;;;9.70;78.40;;;;;;5000062;28;20396;-85
2021/11/19 04:28:27;;;;;;;12.23;5.18;;;9.70;78.50;;;;;;4998612;28;20046;-85
2021/11/19 04:30:55;;;;;;;11.07;4.82;;;9.70;78.30;;;;;;4999659;28;20018;-86
2021/11/19 04:33:21;;;;;;;10.90;4.07;;;9.70;78.50;;;;;;4997013;28;20389;-85
2021/11/19 04:35:52;;;;;;;11.75;4.55;;;9.60;78.00;;;;;;4998755;28;20101;-85
2021/11/19 04:38:18;;;;;;;10.93;4.38;;;9.60;78.00;;;;;;4997180;28;20023;-85
2021/11/19 04:40:54;;;;;;;;;;;;;;;;;;;;;
2021/11/19 04:43:22;;;;;;;14.40;4.30;;;9.50;78.00;;;;;;4997140;28;20023;-85
2021/11/19 04:45:48;;;;;;;7.20;4.60;;;9.50;77.90;;;;;;5020407;28;20064;-86
2021/11/19 04:48:13;;;;;;;10.05;4.05;;;9.40;77.70;;;;;;5013057;28;20030;-85
2021/11/19 04:50:43;;;;;;;12.23;5.05;;;9.30;78.00;;;;;;4995094;28;20077;-86
2021/11/19 04:53:11;;;;;;;13.83;5.17;;;9.30;78.00;;;;;;4999673;28;20027;-85
2021/11/19 04:55:37;;;;;;;13.30;4.63;;;9.30;78.10;;;;;;4996924;28;20447;-86
2021/11/19 04:58:03;;;;;;;12.13;4.75;;;9.30;78.50;;;;;;4999812;28;20049;-86
2021/11/19 05:00:36;;;;;;;12.38;5.43;;;9.20;78.40;;;;;;4996721;28;20029;-85
2021/11/19 05:03:26;;;;;;;14.18;7.00;;;9.20;79.20;;;;;;4997111;28;20061;-85
2021/11/19 05:05:52;;;;;;;20.27;8.23;;;9.20;79.70;;;;;;4997090;28;20038;-86
2021/11/19 05:08:19;;;;;;;18.50;8.60;;;9.20;79.80;;;;;;4996127;28;20030;-87
2021/11/19 05:10:47;;;;;;;16.15;9.77;;;9.20;79.60;;;;;;4999204;28;20018;-86
2021/11/19 05:13:14;;;;;;;16.02;7.93;;;9.20;79.50;;;;;;4996382;28;20022;-85
2021/11/19 05:15:42;;;;;;;16.25;7.30;;;9.20;79.50;;;;;;5003154;28;20030;-85
2021/11/19 05:18:08;;;;;;;13.07;7.38;;;9.20;79.30;;;;;;5014556;28;20089;-85
2021/11/19 05:20:40;;;;;;;15.13;8.65;;;9.20;79.20;;;;;;5018513;28;20032;-82
2021/11/19 05:23:08;;;;;;;15.15;8.88;;;9.20;79.40;;;;;;5014839;28;20057;-91
2021/11/19 05:28:42;;;;;;;20.38;8.45;;;9.00;79.70;;;;;;4993542;28;20121;-88
2021/11/19 05:35:08;;;;;;;16.95;8.27;;;8.90;79.60;;;;;;4959795;28;20034;-88
2021/11/19 05:37:57;;;;;;;17.52;8.13;;;8.90;79.00;;;;;;4998309;28;20097;-86
2021/11/19 05:40:24;;;;;;;16.95;8.75;;;8.90;79.20;;;;;;4996451;28;20034;-89
2021/11/19 05:52:44;;;;;;;12.90;6.70;;;8.20;80.60;;;;;;5174480;27;20475;-85
2021/11/19 05:55:17;;;;;;;13.10;7.68;;;7.90;81.30;;;;;;5169975;27;20033;-89
2021/11/19 05:57:43;;;;;;;15.80;7.93;;;8.10;81.00;;;;;;5133893;28;20027;-86
2021/11/19 06:00:20;;;;;;;21.90;8.85;;;8.10;80.70;;;;;;5134359;28;20030;-87
2021/11/19 06:02:48;;;;;;;16.33;8.32;;;8.30;80.80;;;;;;5133900;27;20540;-84
2021/11/19 06:05:20;;;;;;;16.80;7.80;;;8.40;80.30;;;;;;5133509;28;20034;-88
2021/11/19 06:07:46;;;;;;;14.60;7.32;;;8.40;79.50;;;;;;5133360;27;20467;-82
2021/11/19 06:10:16;;;;;;;13.88;6.78;;;8.50;79.60;;;;;;5133214;27;20034;-84
2021/11/19 06:12:55;;;;;;;15.35;7.80;;;8.50;78.60;;;;;;5150311;27;20035;-81
2021/11/19 06:15:30;;;;;;;15.32;7.40;;;8.60;78.50;;;;;;5147859;27;20030;-81
2021/11/19 06:18:06;;;;;;;9.40;5.78;;;8.50;78.10;;;;;;5135803;27;20031;-82
2021/11/19 06:20:36;;;;;;;9.82;6.65;;;8.50;78.70;;;;;;5140037;27;20032;-82
2021/11/19 06:23:19;;;;;;;;;;;;;;;;;;;;;
2021/11/19 06:25:47;;;;;;;9.57;6.38;;;8.50;79.00;;;;;;5140297;27;20106;-81
2021/11/19 06:28:19;;;;;;;13.68;6.95;;;8.40;78.60;;;;;;5144840;27;20107;-85
2021/11/19 06:30:46;;;;;;;13.30;6.97;;;8.40;79.20;;;;;;5146455;27;20026;-80
2021/11/19 06:33:12;;;;;;;8.30;6.05;;;8.30;79.10;;;;;;5141814;27;20600;-79
2021/11/19 06:35:38;;;;;;;13.73;6.55;;;8.30;79.30;;;;;;5124696;27;20069;-80
2021/11/19 06:38:04;;;;;;;15.40;8.40;;;8.30;78.80;;;;;;5131720;27;20114;-79
2021/11/19 06:40:34;;;;;;;17.27;8.45;;;8.30;79.30;;;;;;5119606;27;20015;-79
2021/11/19 06:43:00;;;;;;;17.88;10.98;;;8.30;79.20;;;;;;5132502;27;20605;-81
2021/11/19 06:45:27;;;;;;;20.55;16.92;;;8.30;78.80;;;;;;5141646;27;20369;-78
2021/11/19 06:47:54;;;;;;;21.23;14.80;;;8.30;79.00;;;;;;5150096;27;20026;-78
2021/11/19 06:50:23;;;;;;;31.33;19.07;;;8.30;79.00;;;;;;5130114;28;20027;-78
2021/11/19 06:52:49;;;;;;;26.50;12.73;;;8.30;78.90;;;;;;5132185;27;20019;-77
2021/11/19 06:55:16;;;;;;;17.08;8.77;;;8.30;78.70;;;;;;5132507;27;20495;-78
2021/11/19 06:57:42;;;;;;;21.40;11.40;;;8.20;78.50;;;;;;5132132;28;20083;-78
2021/11/19 07:00:30;;;;;;;24.85;14.65;;;8.20;78.90;;;;;;5132275;27;20028;-78
2021/11/19 07:03:00;;;;;;;16.90;10.85;;;8.20;79.20;;;;;;5124810;28;20107;-78
2021/11/19 07:05:26;;;;;;;22.27;10.82;;;8.20;78.90;;;;;;5099788;28;20034;-78
2021/11/19 07:07:52;;;;;;;27.35;12.07;;;8.20;79.30;;;;;;5118544;27;20104;-78
2021/11/19 07:10:22;;;;;;;24.00;13.65;;;8.20;79.40;;;;;;5130165;27;20071;-78
2021/11/19 07:12:48;;;;;;;20.65;12.38;;;8.20;79.40;;;;;;5117311;27;20019;-78
2021/11/19 07:15:16;;;;;;;18.90;11.85;;;8.20;79.20;;;;;;5138930;27;20031;-78
2021/11/19 07:17:46;;;;;;;14.57;10.02;;;8.20;79.30;;;;;;5119829;27;20023;-78
2021/11/19 07:20:18;;;;;;;13.73;8.98;;;8.20;79.20;;;;;;5115380;28;20023;-78
2021/11/19 07:22:44;;;;;;;12.63;8.75;;;8.20;79.30;;;;;;5117842;28;20103;-78
2021/11/19 07:25:17;;;;;;;12.65;8.57;;;8.20;79.30;;;;;;5118018;28;20019;-78
2021/11/19 07:27:44;;;;;;;16.33;8.38;;;8.20;79.10;;;;;;5118493;27;20656;-78
2021/11/19 07:30:14;;;;;;;14.60;7.50;;;8.20;78.70;;;;;;5136855;27;20069;-78
2021/11/19 07:32:41;;;;;;;13.80;7.55;;;8.20;78.70;;;;;;5123365;27;20493;-78
2021/11/19 07:35:08;;;;;;;10.63;6.90;;;8.20;78.50;;;;;;5117678;28;20028;-78
2021/11/19 07:37:38;;;;;;;11.88;6.25;;;8.20;78.40;;;;;;5098904;28;20071;-77
2021/11/19 07:40:09;;;;;;;11.32;6.25;;;8.30;78.70;;;;;;5099428;28;20051;-78
2021/11/19 07:42:35;;;;;;;15.60;7.05;;;8.20;78.90;;;;;;5112098;27;20032;-78
2021/11/19 07:45:05;;;;;;;13.77;6.43;;;8.20;78.90;;;;;;5104877;27;20069;-78
2021/11/19 07:47:31;;;;;;;14.48;6.63;;;8.30;79.30;;;;;;5116208;27;20100;-78
2021/11/19 07:49:57;;;;;;;19.48;8.60;;;8.30;79.20;;;;;;5117523;28;20031;-78
2021/11/19 07:52:23;;;;;;;18.13;9.23;;;8.40;79.20;;;;;;5116836;28;20047;-78
2021/11/19 07:54:49;;;;;;;13.70;8.50;;;8.50;79.20;;;;;;5117251;27;20492;-78
2021/11/19 07:57:15;;;;;;;38.85;20.42;;;8.50;79.40;;;;;;5117060;28;20042;-78
2021/11/19 07:59:40;;;;;;;22.65;12.40;;;8.50;79.20;;;;;;5117168;27;20031;-78
2021/11/19 08:02:07;;;;;;;67.30;37.40;;;8.60;79.30;;;;;;5117362;28;20081;-78
2021/11/19 08:04:35;;;;;;;47.40;30.75;;;8.60;79.60;;;;;;5118104;27;20031;-77
2021/11/19 08:07:02;;;;;;;40.95;21.90;;;8.70;80.00;;;;;;5137316;27;20027;-78
2021/11/19 08:09:28;;;;;;;32.42;16.17;;;8.70;79.50;;;;;;5137939;27;20031;-78
2021/11/19 08:11:54;;;;;;;24.85;14.70;;;8.80;79.70;;;;;;5115682;27;20478;-78
2021/11/19 08:14:21;;;;;;;39.78;21.30;;;8.80;79.60;;;;;;5116283;28;20024;-78
2021/11/19 08:16:51;;;;;;;21.45;16.30;;;8.90;79.60;;;;;;5116632;28;20062;-78
2021/11/19 08:19:33;;;;;;;21.45;10.55;;;8.90;79.60;;;;;;5117221;28;20446;-78
2021/11/19 08:22:00;;;;;;;19.10;10.07;;;9.00;80.00;;;;;;5117216;27;20079;-78
2021/11/19 08:24:28;;;;;;;16.83;7.05;;;9.10;79.80;;;;;;5117244;27;20019;-78
2021/11/19 08:27:04;;;;;;;15.55;8.88;;;9.10;79.90;;;;;;5116537;28;20074;-78
2021/11/19 08:29:34;;;;;;;15.57;7.30;;;9.10;79.80;;;;;;5116995;27;20038;-78
2021/11/19 08:32:02;;;;;;;21.77;8.02;;;9.20;79.70;;;;;;5116681;28;20059;-78
2021/11/19 08:34:28;;;;;;;17.67;8.60;;;9.30;79.60;;;;;;5116564;28;20840;-78
2021/11/19 08:36:54;;;;;;;21.52;10.55;;;9.30;79.70;;;;;;5116274;27;20032;-78
2021/11/19 08:39:22;;;;;;;42.03;16.10;;;9.40;79.70;;;;;;5116539;28;20023;-78
2021/11/19 08:41:49;;;;;;;35.80;14.90;;;9.40;79.50;;;;;;5116988;27;20019;-78
2021/11/19 08:44:16;;;;;;;28.55;12.55;;;9.50;79.80;;;;;;5116251;28;20024;-78
2021/11/19 08:46:45;;;;;;;32.22;13.73;;;9.50;79.60;;;;;;5136162;27;20029;-78
2021/11/19 08:49:17;;;;;;;23.90;11.43;;;9.60;79.70;;;;;;5130656;27;20031;-78
2021/11/19 08:51:43;;;;;;;19.80;10.50;;;9.70;79.80;;;;;;5115623;28;20058;-78
2021/11/19 08:54:11;;;;;;;21.67;8.32;;;9.70;80.10;;;;;;5116479;28;20028;-78
2021/11/19 08:56:43;;;;;;;18.98;8.85;;;9.80;79.90;;;;;;5116152;28;20016;-78
2021/11/19 08:59:11;;;;;;;12.60;6.68;;;9.90;79.60;;;;;;5098221;28;20027;-78
2021/11/19 09:01:39;;;;;;;11.60;7.07;;;10.00;79.40;;;;;;5116064;28;20022;-78
2021/11/19 09:04:05;;;;;;;15.48;7.35;;;10.30;78.70;;;;;;5115775;28;20401;-78
2021/11/19 09:06:32;;;;;;;13.40;8.27;;;10.80;77.60;;;;;;5132114;27;20108;-78
2021/11/19 09:08:58;;;;;;;9.07;6.35;;;11.50;75.50;;;;;;5117727;27;20031;-78
2021/11/19 09:11:25;;;;;;;9.55;6.15;;;12.40;73.10;;;;;;5115445;28;20020;-78
2021/11/19 09:13:53;;;;;;;15.07;7.55;;;13.10;71.00;;;;;;5097760;28;20030;-78
2021/11/19 09:16:21;;;;;;;18.92;12.32;;;13.60;68.50;;;;;;5115846;28;20015;-78
2021/11/19 09:18:51;;;;;;;11.77;7.13;;;13.90;67.60;;;;;;5135424;27;20099;-78
2021/11/19 09:21:28;;;;;;;9.48;3.33;;;13.90;66.60;;;;;;5114709;27;20116;-78
2021/11/19 09:24:04;;;;;;;14.00;4.22;;;13.50;66.80;;;;;;5115564;28;20039;-78
2021/11/19 09:26:40;;;;;;;11.13;4.95;;;13.00;69.20;;;;;;5115475;28;20039;-78
2021/11/19 09:29:13;;;;;;;10.07;6.20;;;12.90;69.50;;;;;;5097194;28;20023;-78
2021/11/19 09:31:40;;;;;;;13.68;9.38;;;13.00;69.50;;;;;;5097280;28;20028;-78
2021/11/19 09:34:07;;;;;;;10.25;9.15;;;13.30;68.90;;;;;;5115527;28;20028;-78
2021/11/19 09:36:34;;;;;;;8.55;7.53;;;13.30;67.30;;;;;;5115323;28;20019;-78
2021/11/19 09:39:00;;;;;;;14.50;3.90;;;13.30;67.50;;;;;;5115572;28;20035;-78
2021/11/19 09:41:31;;;;;;;11.02;3.38;;;13.10;68.00;;;;;;5103527;28;20028;-78
2021/11/19 09:44:15;;;;;;;11.15;3.75;;;12.80;68.70;;;;;;5127813;27;20856;-78
2021/11/19 09:47:00;;;;;;;9.05;3.97;;;12.60;70.30;;;;;;5135957;27;20030;-78
2021/11/19 09:49:50;;;;;;;14.68;3.85;;;12.30;70.90;;;;;;5135560;28;20027;-78
2021/11/19 09:52:42;;;;;;;8.75;4.13;;;12.20;71.70;;;;;;5121773;28;20112;-78
2021/11/19 09:55:16;;;;;;;7.50;3.58;;;12.20;72.00;;;;;;5115227;28;20076;-78
2021/11/19 09:57:48;;;;;;;11.27;4.00;;;12.20;72.60;;;;;;5096973;28;20520;-78
2021/11/19 10:00:45;;;;;;;9.38;3.50;;;12.20;72.70;;;;;;5115272;28;20035;-78
2021/11/19 10:03:49;;;;;;;12.63;3.50;;;12.00;72.40;;;;;;5115387;28;20028;-78
2021/11/19 10:07:00;;;;;;;8.48;3.33;;;12.00;72.80;;;;;;5061192;28;20123;-78
2021/11/19 10:09:47;;;;;;;11.30;2.85;;;11.90;73.00;;;;;;5133304;28;20046;-78
2021/11/19 10:12:22;;;;;;;11.90;4.50;;;11.90;72.90;;;;;;5115326;28;20030;-78
2021/11/19 10:15:03;;;;;;;6.35;3.80;;;12.00;73.40;;;;;;5109582;28;20087;-78
2021/11/19 10:17:41;;;;;;;13.70;4.90;;;12.00;73.40;;;;;;5113856;28;20028;-78
2021/11/19 10:20:10;;;;;;;12.30;3.40;;;12.10;73.50;;;;;;5115167;28;20035;-78
2021/11/19 10:22:40;;;;;;;8.07;3.80;;;12.10;73.00;;;;;;5114905;28;20103;-79
2021/11/19 10:25:12;;;;;;;9.50;3.53;;;12.10;73.20;;;;;;5114408;28;20024;-78
2021/11/19 10:27:42;;;;;;;10.52;4.38;;;12.20;73.50;;;;;;5115128;28;20428;-78
2021/11/19 10:30:29;;;;;;;9.75;3.55;;;12.20;73.50;;;;;;5114813;28;20042;-78
2021/11/19 10:33:09;;;;;;;11.20;3.03;;;12.20;73.20;;;;;;5096385;28;20807;-78
2021/11/19 10:35:46;;;;;;;12.95;3.42;;;12.30;73.30;;;;;;5114977;28;20028;-78
2021/11/19 10:38:34;;;;;;;7.07;3.38;;;12.20;73.50;;;;;;5116557;28;20028;-78
2021/11/19 10:41:33;;;;;;;13.27;5.65;;;12.30;73.60;;;;;;5118920;27;20072;-78
2021/11/19 10:44:18;;;;;;;7.53;3.15;;;12.50;72.90;;;;;;5131006;27;20026;-78
2021/11/19 10:47:10;;;;;;;17.05;5.82;;;12.50;72.00;;;;;;5135275;27;20600;-78
2021/11/19 10:50:00;;;;;;;8.13;2.70;;;12.50;72.10;;;;;;5118600;28;20377;-77
2021/11/19 10:52:53;;;;;;;13.02;3.58;;;12.50;71.90;;;;;;5118428;28;20047;-78
2021/11/19 10:55:46;;;;;;;10.80;2.53;;;12.60;72.00;;;;;;5118518;28;20024;-78
2021/11/19 10:58:23;;;;;;;5.60;1.85;;;12.60;71.40;;;;;;5118450;28;20058;-78
2021/11/19 11:00:58;;;;;;;10.40;2.75;;;12.70;71.50;;;;;;5118751;27;20027;-78
2021/11/19 11:03:48;;;;;;;5.55;1.92;;;12.70;71.30;;;;;;5118148;28;20019;-78
2021/11/19 11:06:17;;;;;;;9.85;3.30;;;12.80;70.80;;;;;;5127310;27;20114;-78
2021/11/19 11:08:46;;;;;;;8.93;2.90;;;12.70;70.60;;;;;;5124794;27;20028;-78
2021/11/19 11:11:30;;;;;;;5.80;3.15;;;12.80;70.90;;;;;;5118278;28;20024;-79
2021/11/19 11:13:59;;;;;;;11.70;3.38;;;12.80;70.30;;;;;;5118654;27;20043;-78
2021/11/19 11:16:29;;;;;;;8.55;3.65;;;12.80;70.30;;;;;;5118244;28;20402;-78
2021/11/19 11:18:59;;;;;;;12.73;2.92;;;12.80;70.10;;;;;;5118546;27;20066;-78
2021/11/19 11:21:31;;;;;;;13.77;3.10;;;12.90;70.90;;;;;;5117815;28;20038;-78
2021/11/19 11:24:17;;;;;;;6.25;2.70;;;12.90;70.40;;;;;;5118282;28;20044;-78
2021/11/19 11:26:46;;;;;;;9.88;2.70;;;12.90;70.10;;;;;;5099788;28;20501;-78
2021/11/19 11:29:18;;;;;;;7.82;2.58;;;13.00;70.60;;;;;;5099643;28;20024;-78
2021/11/19 11:32:01;;;;;;;6.47;2.47;;;13.00;70.30;;;;;;5118048;27;20039;-78
2021/11/19 11:34:34;;;;;;;12.30;3.60;;;13.00;70.00;;;;;;5117634;28;20032;-78
2021/11/19 11:37:03;;;;;;;9.98;3.30;;;13.10;70.40;;;;;;5117925;28;20385;-78
2021/11/19 11:39:52;;;;;;;15.75;2.72;;;13.20;69.80;;;;;;5117843;27;20032;-78
2021/11/19 11:42:37;;;;;;;10.65;3.00;;;13.10;69.30;;;;;;5117761;27;20020;-78
2021/11/19 11:45:32;;;;;;;7.90;3.10;;;13.10;69.90;;;;;;5123495;27;20019;-78
2021/11/19 11:48:19;;;;;;;9.65;3.90;;;13.20;70.00;;;;;;5137713;27;20095;-77
2021/11/19 11:50:50;;;;;;;6.00;2.60;;;13.20;69.30;;;;;;5137875;27;20039;-77
2021/11/19 11:53:21;;;;;;;8.32;3.47;;;13.10;69.40;;;;;;5137462;27;20023;-78
2021/11/19 11:56:14;;;;;;;11.70;3.95;;;13.10;70.60;;;;;;5137684;27;20555;-78
2021/11/19 11:59:00;;;;;;;10.45;3.83;;;13.10;70.30;;;;;;5138015;27;20820;-77
2021/11/19 12:01:35;;;;;;;14.52;3.70;;;13.20;69.70;;;;;;5136960;27;20052;-78
2021/11/19 12:04:30;;;;;;;10.10;3.08;;;13.20;69.70;;;;;;5117257;28;20030;-78
2021/11/19 12:07:15;;;;;;;10.50;3.95;;;13.20;69.70;;;;;;5117459;28;20019;-77
2021/11/19 12:09:50;;;;;;;10.57;3.55;;;13.30;69.80;;;;;;5117405;28;20371;-78
2021/11/19 12:12:19;;;;;;;8.30;4.25;;;13.30;69.70;;;;;;5117538;27;20044;-78
2021/11/19 12:14:53;;;;;;;19.13;3.80;;;13.30;69.20;;;;;;5117585;27;20030;-78
2021/11/19 12:17:29;;;;;;;13.52;4.55;;;13.30;69.80;;;;;;5116845;28;20177;-77
2021/11/19 12:20:02;;;;;;;12.90;4.63;;;13.30;69.20;;;;;;5116967;28;20031;-78
2021/11/19 12:22:34;;;;;;;11.93;3.75;;;13.30;69.70;;;;;;5116535;27;20393;-78
2021/11/19 12:25:38;;;;;;;11.00;3.53;;;13.40;69.70;;;;;;5117039;28;20030;-78
2021/11/19 12:28:15;;;;;;;9.48;3.63;;;13.30;69.30;;;;;;5117323;27;20032;-78
2021/11/19 12:30:44;;;;;;;9.68;3.90;;;13.40;69.40;;;;;;5098761;28;20072;-78
2021/11/19 12:33:24;;;;;;;7.97;3.20;;;13.50;69.30;;;;;;5116466;28;20023;-78
2021/11/19 12:36:22;;;;;;;7.15;3.42;;;13.50;68.50;;;;;;5116971;27;20031;-78
2021/11/19 12:38:52;;;;;;;8.40;3.30;;;13.60;68.90;;;;;;5100070;28;20024;-79
2021/11/19 12:41:30;;;;;;;11.80;3.60;;;13.70;68.80;;;;;;5116349;28;20098;-78
2021/11/19 12:44:37;;;;;;;5.78;2.45;;;13.60;68.00;;;;;;5116643;27;20176;-78
2021/11/19 12:47:28;;;;;;;12.45;3.38;;;13.70;68.40;;;;;;5053380;28;20108;-77
2021/11/19 12:50:06;;;;;;;9.60;3.40;;;13.70;67.70;;;;;;5053142;28;20051;-77
2021/11/19 12:52:42;;;;;;;10.98;3.30;;;13.70;67.80;;;;;;5099235;28;20088;-77
2021/11/19 12:55:16;;;;;;;11.02;3.45;;;13.70;67.30;;;;;;5116356;28;20023;-78
2021/11/19 12:58:00;;;;;;;9.60;3.50;;;13.70;67.40;;;;;;5119300;27;20023;-77
2021/11/19 13:00:35;;;;;;;5.75;2.80;;;13.70;67.40;;;;;;5125564;27;20024;-78
2021/11/19 13:03:29;;;;;;;9.68;3.08;;;13.70;67.50;;;;;;5130215;27;20044;-78
2021/11/19 13:06:27;;;;;;;10.00;3.42;;;13.70;67.30;;;;;;5114727;27;20027;-78
2021/11/19 13:08:55;;;;;;;14.77;3.83;;;13.80;67.20;;;;;;5116296;27;20102;-77
2021/11/19 13:11:33;;;;;;;5.93;2.63;;;13.90;66.50;;;;;;5116027;28;20035;-78
2021/11/19 13:14:14;;;;;;;7.05;3.05;;;13.80;66.10;;;;;;5119551;27;20030;-77
2021/11/19 13:17:03;;;;;;;8.98;3.55;;;13.70;66.10;;;;;;5134572;27;20123;-78
2021/11/19 13:19:29;;;;;;;8.48;3.35;;;13.80;66.30;;;;;;5115863;28;20080;-78
2021/11/19 13:22:02;;;;;;;12.95;4.15;;;13.80;65.70;;;;;;5115921;27;20031;-78
2021/11/19 13:24:28;;;;;;;10.93;3.40;;;13.90;66.70;;;;;;5097171;28;20393;-78
2021/11/19 13:26:55;;;;;;;8.82;3.97;;;13.90;66.10;;;;;;5115578;28;20023;-78
2021/11/19 13:29:37;;;;;;;10.95;4.00;;;14.00;66.20;;;;;;5097459;28;20477;-78
2021/11/19 13:32:32;;;;;;;18.23;4.13;;;13.90;65.60;;;;;;5115728;28;20055;-78
2021/11/19 13:35:11;;;;;;;12.88;4.00;;;13.90;66.30;;;;;;5115440;28;20019;-78
2021/11/19 13:38:02;;;;;;;12.93;3.20;;;13.90;65.30;;;;;;5115949;27;20031;-78